Latest Weather Observations for Melville Water

IDW60801

Issued at 2:02 am WST Monday 2 February 2015 (issued every 30 minutes, with the page automatically refreshed every 10 minutes)

About weather observations | Map of weather stations | Latest weather observations for WA | Other Formats
Station Details ID: 009091 Name: INNER DOLPHIN PYLON Lat: -31.99 Lon: 115.83 Height: 0.0 m
Data from the previous 72 hours. | See also: Recent months for locations in Western Australia
Date/Time
WST
Temp
°C
App
Temp
°C
Dew
Point
Rel
Hum
%
Delta-T
°C
Wind Press
QNH
hPa
Press
MSL
hPa
Rain
since 9 am
mm
Dir
 
Spd
km/h
Gust
km/h
Spd
kts
Gust
kts
02/02:00am - - - - - E 22 28 12 15 - - -
02/01:30am - - - - - SE 26 37 14 20 - - -
02/01:00am - - - - - SE 33 52 18 28 - - -
02/12:59am - - - - - SE 30 52 16 28 - - -
02/12:30am - - - - - ENE 28 37 15 20 - - -
02/12:00am - - - - - NE 41 52 22 28 - - -
 
Date/Time
WST
Temp
°C
App
Temp
°C
Dew
Point
Rel
Hum
%
Delta-T
°C
Wind Press
QNH
hPa
Press
MSL
hPa
Rain
since 9 am
mm
Dir
 
Spd
km/h
Gust
km/h
Spd
kts
Gust
kts
01/11:30pm - - - - - ENE 37 46 20 25 - - -
01/11:00pm - - - - - E 26 32 14 17 - - -
01/10:30pm - - - - - NNE 20 26 11 14 - - -
01/10:00pm - - - - - N 19 28 10 15 - - -
01/09:30pm - - - - - NNW 24 32 13 17 - - -
01/09:00pm - - - - - NW 30 43 16 23 - - -
01/08:31pm - - - - - NW 35 54 19 29 - - -
01/08:30pm - - - - - NW 37 54 20 29 - - -
01/08:03pm - - - - - N 41 70 22 38 - - -
01/08:00pm - - - - - NNE 30 70 16 38 - - -
01/07:57pm - - - - - ENE 19 63 10 34 - - -
01/07:30pm - - - - - SE 11 13 6 7 - - -
01/07:00pm - - - - - SE 20 26 11 14 - - -
01/06:30pm - - - - - ESE 32 41 17 22 - - -
01/06:00pm - - - - - SE 26 37 14 20 - - -
01/05:30pm - - - - - SE 28 41 15 22 - - -
01/05:00pm - - - - - SE 28 37 15 20 - - -
01/04:30pm - - - - - ESE 24 33 13 18 - - -
01/04:00pm - - - - - ESE 17 24 9 13 - - -
01/03:30pm - - - - - SE 20 30 11 16 - - -
01/03:00pm - - - - - SE 26 35 14 19 - - -
01/02:30pm - - - - - ESE 24 32 13 17 - - -
01/02:00pm - - - - - ESE 22 32 12 17 - - -
01/01:30pm - - - - - E 20 30 11 16 - - -
01/01:00pm - - - - - E 28 35 15 19 - - -
01/12:30pm - - - - - ESE 19 28 10 15 - - -
01/12:00pm - - - - - ESE 20 28 11 15 - - -
01/11:30am - - - - - ESE 20 26 11 14 - - -
01/11:00am - - - - - ESE 19 22 10 12 - - -
01/10:30am - - - - - ESE 20 26 11 14 - - -
01/10:00am - - - - - SE 17 26 9 14 - - -
01/09:30am - - - - - ESE 15 24 8 13 - - -
01/09:00am - - - - - E 26 39 14 21 - - -
01/08:30am - - - - - E 24 33 13 18 - - -
01/08:00am - - - - - ESE 26 35 14 19 - - -
01/07:30am - - - - - ESE 26 35 14 19 - - -
01/07:00am - - - - - ESE 30 43 16 23 - - -
01/06:30am - - - - - ESE 30 41 16 22 - - -
01/06:00am - - - - - ESE 24 30 13 16 - - -
01/05:30am - - - - - ESE 26 32 14 17 - - -
01/05:00am - - - - - ESE 26 35 14 19 - - -
01/04:30am - - - - - ESE 30 39 16 21 - - -
01/04:00am - - - - - ESE 28 37 15 20 - - -
01/03:30am - - - - - ESE 28 39 15 21 - - -
01/03:00am - - - - - ESE 30 41 16 22 - - -
01/02:30am - - - - - ESE 30 39 16 21 - - -
01/02:00am - - - - - ESE 30 39 16 21 - - -
01/01:30am - - - - - E 30 39 16 21 - - -
01/01:00am - - - - - ESE 32 39 17 21 - - -
01/12:30am - - - - - ESE 30 41 16 22 - - -
01/12:00am - - - - - ESE 32 44 17 24 - - -
 
Date/Time
WST
Temp
°C
App
Temp
°C
Dew
Point
Rel
Hum
%
Delta-T
°C
Wind Press
QNH
hPa
Press
MSL
hPa
Rain
since 9 am
mm
Dir
 
Spd
km/h
Gust
km/h
Spd
kts
Gust
kts
31/11:30pm - - - - - SE 30 41 16 22 - - -
31/11:00pm - - - - - ESE 28 35 15 19 - - -
31/10:30pm - - - - - ESE 24 32 13 17 - - -
31/10:00pm - - - - - ESE 30 44 16 24 - - -
31/09:30pm - - - - - SE 28 39 15 21 - - -
31/09:00pm - - - - - ESE 22 33 12 18 - - -
31/08:30pm - - - - - ESE 22 30 12 16 - - -
31/08:00pm - - - - - ESE 20 32 11 17 - - -
31/07:30pm - - - - - E 26 39 14 21 - - -
31/07:00pm - - - - - E 30 41 16 22 - - -
31/06:30pm - - - - - E 26 32 14 17 - - -
31/06:00pm - - - - - ESE 20 28 11 15 - - -
31/05:30pm - - - - - ESE 26 33 14 18 - - -
31/05:00pm - - - - - ESE 20 28 11 15 - - -
31/04:30pm - - - - - E 30 41 16 22 - - -
31/04:00pm - - - - - ESE 19 33 10 18 - - -
31/03:30pm - - - - - E 19 28 10 15 - - -
31/03:00pm - - - - - E 22 35 12 19 - - -
31/02:30pm - - - - - ESE 20 33 11 18 - - -
31/02:00pm - - - - - SE 24 32 13 17 - - -
31/01:30pm - - - - - ESE 26 35 14 19 - - -
31/01:00pm - - - - - ESE 26 33 14 18 - - -
31/12:30pm - - - - - ESE 22 32 12 17 - - -
31/12:00pm - - - - - ESE 26 35 14 19 - - -
31/11:30am - - - - - ESE 33 41 18 22 - - -
31/11:00am - - - - - ESE 35 44 19 24 - - -
31/10:30am - - - - - ESE 20 39 11 21 - - -
31/10:00am - - - - - ESE 22 35 12 19 - - -
31/09:30am - - - - - ESE 26 37 14 20 - - -
31/09:00am - - - - - ESE 30 41 16 22 - - -
31/08:30am - - - - - SE 26 32 14 17 - - -
31/08:00am - - - - - ESE 28 39 15 21 - - -
31/07:30am - - - - - ESE 30 37 16 20 - - -
31/07:00am - - - - - ESE 22 28 12 15 - - -
31/06:30am - - - - - E 22 30 12 16 - - -
31/06:00am - - - - - E 26 35 14 19 - - -
31/05:30am - - - - - E 20 30 11 16 - - -
31/05:00am - - - - - SE 15 20 8 11 - - -
31/04:30am - - - - - ESE 11 20 6 11 - - -
31/04:00am - - - - - ESE 17 28 9 15 - - -
31/03:30am - - - - - E 33 44 18 24 - - -
31/03:00am - - - - - E 22 39 12 21 - - -
31/02:30am - - - - - E 11 20 6 11 - - -
31/02:00am - - - - - ESE 26 33 14 18 - - -
31/01:30am - - - - - ESE 32 44 17 24 - - -
31/01:00am - - - - - ESE 22 32 12 17 - - -
31/12:30am - - - - - ESE 20 30 11 16 - - -
31/12:01am - - - - - E 28 46 15 25 - - -
31/12:00am - - - - - E 30 46 16 25 - - -
 
Date/Time
WST
Temp
°C
App
Temp
°C
Dew
Point
Rel
Hum
%
Delta-T
°C
Wind Press
QNH
hPa
Press
MSL
hPa
Rain
since 9 am
mm
Dir
 
Spd
km/h
Gust
km/h
Spd
kts
Gust
kts
30/11:34pm - - - - - E 37 56 20 30 - - -
30/11:30pm - - - - - ESE 39 56 21 30 - - -
30/11:00pm - - - - - ESE 37 50 20 27 - - -
30/10:43pm - - - - - ESE 37 56 20 30 - - -
30/10:30pm - - - - - ESE 35 48 19 26 - - -
30/10:00pm - - - - - ESE 37 52 20 28 - - -
30/09:30pm - - - - - SE 28 41 15 22 - - -
30/09:28pm - - - - - SE 28 41 15 22 - - -
30/09:00pm - - - - - SSE 17 19 9 10 - - -
30/08:30pm - - - - - SE 13 15 7 8 - - -
30/08:00pm - - - - - SSE 7 9 4 5 - - -
30/07:30pm - - - - - ESE 7 11 4 6 - - -
30/07:00pm - - - - - SE 11 15 6 8 - - -
30/06:30pm - - - - - E 17 22 9 12 - - -
30/06:00pm - - - - - ESE 20 24 11 13 - - -
30/05:30pm - - - - - SE 15 20 8 11 - - -
30/05:00pm - - - - - ESE 28 39 15 21 - - -
30/04:53pm - - - - - SE 20 35 11 19 - - -
30/04:30pm - - - - - E 4 7 2 4 - - -
30/04:00pm - - - - - S 6 9 3 5 - - -
30/03:30pm - - - - - ENE 9 15 5 8 - - -
30/03:00pm - - - - - NE 15 22 8 12 - - -
30/02:30pm - - - - - ENE 26 35 14 19 - - -
30/02:00pm - - - - - E 24 32 13 17 - - -
30/01:30pm - - - - - E 32 43 17 23 - - -
30/01:00pm - - - - - E 24 32 13 17 - - -
30/12:30pm - - - - - E 26 37 14 20 - - -
30/12:00pm - - - - - E 26 35 14 19 - - -
30/11:30am - - - - - SSE 15 20 8 11 - - -
30/11:00am - - - - - ESE 11 22 6 12 - - -
30/10:30am - - - - - ESE 11 17 6 9 - - -
30/10:00am - - - - - SE 13 19 7 10 - - -
30/09:30am - - - - - SE 11 13 6 7 - - -
30/09:00am - - - - - SSE 13 20 7 11 - - -
30/08:30am - - - - - SE 13 19 7 10 - - -
30/08:00am - - - - - ESE 13 17 7 9 - - -
30/07:30am - - - - - SSW 6 9 3 5 - - -
30/07:00am - - - - - SW 13 17 7 9 - - -
30/06:30am - - - - - ESE 22 30 12 16 - - -
30/06:00am - - - - - ESE 22 30 12 16 - - -
30/05:30am - - - - - S 9 17 5 9 - - -
30/05:00am - - - - - SSW 13 19 7 10 - - -
30/04:30am - - - - - SSW 13 15 7 8 - - -
30/04:00am - - - - - SSE 7 11 4 6 - - -
30/03:30am - - - - - S 9 13 5 7 - - -
30/03:00am - - - - - SSE 13 15 7 8 - - -
30/02:30am - - - - - SSW 11 13 6 7 - - -

Other Formats:

Comma delimited format used in spreadsheet applications
http://www.bom.gov.au/fwo/IDW60801/IDW60801.95620.axf

JavaScript Object Notation format (JSON) in row-major order
http://www.bom.gov.au/fwo/IDW60801/IDW60801.95620.json